sensor_id;sensor_type;location;lat;lon;timestamp;temperature;humidity
46159;DHT22;31888;44.512;26.104;2023-10-19T00:00:38;7.80;99.90
46159;DHT22;31888;44.512;26.104;2023-10-19T00:03:08;7.80;99.90
46159;DHT22;31888;44.512;26.104;2023-10-19T00:05:31;7.80;99.90
46159;DHT22;31888;44.512;26.104;2023-10-19T00:07:56;7.80;99.90
46159;DHT22;31888;44.512;26.104;2023-10-19T00:10:20;7.70;99.90
46159;DHT22;31888;44.512;26.104;2023-10-19T00:12:44;7.70;99.90
46159;DHT22;31888;44.512;26.104;2023-10-19T00:15:13;7.60;99.90
46159;DHT22;31888;44.512;26.104;2023-10-19T00:17:38;7.60;99.90
46159;DHT22;31888;44.512;26.104;2023-10-19T00:20:03;7.50;99.90
46159;DHT22;31888;44.512;26.104;2023-10-19T00:22:51;7.50;99.90
46159;DHT22;31888;44.512;26.104;2023-10-19T00:25:15;7.50;99.90
46159;DHT22;31888;44.512;26.104;2023-10-19T00:27:39;7.50;99.90
46159;DHT22;31888;44.512;26.104;2023-10-19T00:30:04;7.40;99.90
46159;DHT22;31888;44.512;26.104;2023-10-19T00:32:30;7.40;99.90
46159;DHT22;31888;44.512;26.104;2023-10-19T00:34:54;7.40;99.90
46159;DHT22;31888;44.512;26.104;2023-10-19T00:37:20;7.40;99.90
46159;DHT22;31888;44.512;26.104;2023-10-19T00:39:49;7.40;99.90
46159;DHT22;31888;44.512;26.104;2023-10-19T00:42:17;7.40;99.90
46159;DHT22;31888;44.512;26.104;2023-10-19T00:44:46;7.40;99.90
46159;DHT22;31888;44.512;26.104;2023-10-19T00:47:13;7.30;99.90
46159;DHT22;31888;44.512;26.104;2023-10-19T00:49:41;7.30;99.90
46159;DHT22;31888;44.512;26.104;2023-10-19T00:52:10;7.30;99.90
46159;DHT22;31888;44.512;26.104;2023-10-19T00:54:45;7.30;99.90
46159;DHT22;31888;44.512;26.104;2023-10-19T00:57:18;7.30;99.90
46159;DHT22;31888;44.512;26.104;2023-10-19T00:59:45;7.20;99.90
46159;DHT22;31888;44.512;26.104;2023-10-19T01:02:13;7.20;99.90
46159;DHT22;31888;44.512;26.104;2023-10-19T01:04:53;7.20;99.90
46159;DHT22;31888;44.512;26.104;2023-10-19T01:07:22;7.20;99.90
46159;DHT22;31888;44.512;26.104;2023-10-19T01:09:53;7.20;99.90
46159;DHT22;31888;44.512;26.104;2023-10-19T01:12:19;7.20;99.90
46159;DHT22;31888;44.512;26.104;2023-10-19T01:15:04;7.20;99.90
46159;DHT22;31888;44.512;26.104;2023-10-19T01:17:30;7.20;99.90
46159;DHT22;31888;44.512;26.104;2023-10-19T01:19:56;7.20;99.90
46159;DHT22;31888;44.512;26.104;2023-10-19T01:22:22;7.20;99.90
46159;DHT22;31888;44.512;26.104;2023-10-19T01:24:50;7.00;99.90
46159;DHT22;31888;44.512;26.104;2023-10-19T01:27:16;7.00;99.90
46159;DHT22;31888;44.512;26.104;2023-10-19T01:29:41;6.90;99.90
46159;DHT22;31888;44.512;26.104;2023-10-19T01:32:07;6.90;99.90
46159;DHT22;31888;44.512;26.104;2023-10-19T01:34:32;6.80;99.90
46159;DHT22;31888;44.512;26.104;2023-10-19T01:36:58;6.80;99.90
46159;DHT22;31888;44.512;26.104;2023-10-19T01:39:25;6.70;99.90
46159;DHT22;31888;44.512;26.104;2023-10-19T01:41:50;6.80;99.90
46159;DHT22;31888;44.512;26.104;2023-10-19T01:44:14;6.80;99.90
46159;DHT22;31888;44.512;26.104;2023-10-19T01:46:39;6.70;99.90
46159;DHT22;31888;44.512;26.104;2023-10-19T01:49:03;6.70;99.90
46159;DHT22;31888;44.512;26.104;2023-10-19T01:51:29;6.80;99.90
46159;DHT22;31888;44.512;26.104;2023-10-19T01:53:53;6.70;99.90
46159;DHT22;31888;44.512;26.104;2023-10-19T01:56:18;6.60;99.90
46159;DHT22;31888;44.512;26.104;2023-10-19T01:58:44;6.60;99.90
46159;DHT22;31888;44.512;26.104;2023-10-19T02:01:10;6.60;99.90
46159;DHT22;31888;44.512;26.104;2023-10-19T02:03:42;6.60;99.90
46159;DHT22;31888;44.512;26.104;2023-10-19T02:06:06;6.70;99.90
46159;DHT22;31888;44.512;26.104;2023-10-19T02:08:35;6.60;99.90
46159;DHT22;31888;44.512;26.104;2023-10-19T02:11:01;6.70;99.90
46159;DHT22;31888;44.512;26.104;2023-10-19T02:13:26;6.60;99.90
46159;DHT22;31888;44.512;26.104;2023-10-19T02:15:53;6.50;99.90
46159;DHT22;31888;44.512;26.104;2023-10-19T02:18:16;6.60;99.90
46159;DHT22;31888;44.512;26.104;2023-10-19T02:20:41;6.60;99.90
46159;DHT22;31888;44.512;26.104;2023-10-19T02:23:04;6.50;99.90
46159;DHT22;31888;44.512;26.104;2023-10-19T02:25:29;6.50;99.90
46159;DHT22;31888;44.512;26.104;2023-10-19T02:27:54;6.40;99.90
46159;DHT22;31888;44.512;26.104;2023-10-19T02:30:18;6.50;99.90
46159;DHT22;31888;44.512;26.104;2023-10-19T02:32:43;6.50;99.90
46159;DHT22;31888;44.512;26.104;2023-10-19T02:35:08;6.50;99.90
46159;DHT22;31888;44.512;26.104;2023-10-19T02:37:32;6.50;99.90
46159;DHT22;31888;44.512;26.104;2023-10-19T02:39:56;6.50;99.90
46159;DHT22;31888;44.512;26.104;2023-10-19T02:42:19;6.50;99.90
46159;DHT22;31888;44.512;26.104;2023-10-19T02:44:44;6.50;99.90
46159;DHT22;31888;44.512;26.104;2023-10-19T02:47:07;6.50;99.90
46159;DHT22;31888;44.512;26.104;2023-10-19T02:49:34;6.50;99.90
46159;DHT22;31888;44.512;26.104;2023-10-19T02:52:01;6.40;99.90
46159;DHT22;31888;44.512;26.104;2023-10-19T02:54:27;6.40;99.90
46159;DHT22;31888;44.512;26.104;2023-10-19T02:56:55;6.40;99.90
46159;DHT22;31888;44.512;26.104;2023-10-19T02:59:24;6.40;99.90
46159;DHT22;31888;44.512;26.104;2023-10-19T03:01:47;6.30;99.90
46159;DHT22;31888;44.512;26.104;2023-10-19T03:04:11;6.30;99.90
46159;DHT22;31888;44.512;26.104;2023-10-19T03:06:36;6.30;99.90
46159;DHT22;31888;44.512;26.104;2023-10-19T03:09:04;6.40;99.90
46159;DHT22;31888;44.512;26.104;2023-10-19T03:11:37;6.40;99.90
46159;DHT22;31888;44.512;26.104;2023-10-19T03:14:05;6.30;99.90
46159;DHT22;31888;44.512;26.104;2023-10-19T03:16:29;6.30;99.90
46159;DHT22;31888;44.512;26.104;2023-10-19T03:18:53;6.30;99.90
46159;DHT22;31888;44.512;26.104;2023-10-19T03:21:17;6.30;99.90
46159;DHT22;31888;44.512;26.104;2023-10-19T03:23:43;6.30;99.90
46159;DHT22;31888;44.512;26.104;2023-10-19T03:26:07;6.30;99.90
46159;DHT22;31888;44.512;26.104;2023-10-19T03:28:51;6.30;99.90
46159;DHT22;31888;44.512;26.104;2023-10-19T03:31:17;6.30;99.90
46159;DHT22;31888;44.512;26.104;2023-10-19T03:33:40;6.30;99.90
46159;DHT22;31888;44.512;26.104;2023-10-19T03:36:06;6.30;99.90
46159;DHT22;31888;44.512;26.104;2023-10-19T03:38:35;6.30;99.90
46159;DHT22;31888;44.512;26.104;2023-10-19T03:41:01;6.40;99.90
46159;DHT22;31888;44.512;26.104;2023-10-19T03:43:29;6.30;99.90
46159;DHT22;31888;44.512;26.104;2023-10-19T03:45:53;6.30;99.90
46159;DHT22;31888;44.512;26.104;2023-10-19T03:48:18;6.30;99.90
46159;DHT22;31888;44.512;26.104;2023-10-19T03:50:50;6.30;99.90
46159;DHT22;31888;44.512;26.104;2023-10-19T03:53:16;6.30;99.90
46159;DHT22;31888;44.512;26.104;2023-10-19T03:55:40;6.30;99.90
46159;DHT22;31888;44.512;26.104;2023-10-19T03:58:07;6.30;99.90
46159;DHT22;31888;44.512;26.104;2023-10-19T04:00:34;6.30;99.90
46159;DHT22;31888;44.512;26.104;2023-10-19T04:02:59;6.30;99.90
46159;DHT22;31888;44.512;26.104;2023-10-19T04:05:23;6.20;99.90
46159;DHT22;31888;44.512;26.104;2023-10-19T04:07:49;6.20;99.90
46159;DHT22;31888;44.512;26.104;2023-10-19T04:10:17;6.10;99.90
46159;DHT22;31888;44.512;26.104;2023-10-19T04:13:02;6.10;99.90
46159;DHT22;31888;44.512;26.104;2023-10-19T04:15:29;6.10;99.90
46159;DHT22;31888;44.512;26.104;2023-10-19T04:17:56;6.10;99.90
46159;DHT22;31888;44.512;26.104;2023-10-19T04:20:24;6.10;99.90
46159;DHT22;31888;44.512;26.104;2023-10-19T04:22:52;6.30;99.90
46159;DHT22;31888;44.512;26.104;2023-10-19T04:25:18;6.20;99.90
46159;DHT22;31888;44.512;26.104;2023-10-19T04:27:43;6.20;99.90
46159;DHT22;31888;44.512;26.104;2023-10-19T04:30:08;6.30;99.90
46159;DHT22;31888;44.512;26.104;2023-10-19T04:32:40;6.30;99.90
46159;DHT22;31888;44.512;26.104;2023-10-19T04:35:07;6.30;99.90
46159;DHT22;31888;44.512;26.104;2023-10-19T04:37:32;6.30;99.90
46159;DHT22;31888;44.512;26.104;2023-10-19T04:39:56;6.30;99.90
46159;DHT22;31888;44.512;26.104;2023-10-19T04:42:23;6.30;99.90
46159;DHT22;31888;44.512;26.104;2023-10-19T04:44:49;6.30;99.90
46159;DHT22;31888;44.512;26.104;2023-10-19T04:47:13;6.30;99.90
46159;DHT22;31888;44.512;26.104;2023-10-19T04:49:39;6.40;99.90
46159;DHT22;31888;44.512;26.104;2023-10-19T04:52:04;6.50;99.90
46159;DHT22;31888;44.512;26.104;2023-10-19T04:54:28;6.50;99.90
46159;DHT22;31888;44.512;26.104;2023-10-19T04:56:52;6.60;99.90
46159;DHT22;31888;44.512;26.104;2023-10-19T04:59:18;6.60;99.90
46159;DHT22;31888;44.512;26.104;2023-10-19T05:01:42;6.70;99.90
46159;DHT22;31888;44.512;26.104;2023-10-19T05:04:08;6.60;99.90
46159;DHT22;31888;44.512;26.104;2023-10-19T05:06:34;6.60;99.90
46159;DHT22;31888;44.512;26.104;2023-10-19T05:08:58;6.70;99.90
46159;DHT22;31888;44.512;26.104;2023-10-19T05:11:24;6.80;99.90
46159;DHT22;31888;44.512;26.104;2023-10-19T05:13:51;6.90;99.90
46159;DHT22;31888;44.512;26.104;2023-10-19T05:16:15;7.00;99.90
46159;DHT22;31888;44.512;26.104;2023-10-19T05:18:39;7.20;99.90
46159;DHT22;31888;44.512;26.104;2023-10-19T05:21:04;7.30;99.90
46159;DHT22;31888;44.512;26.104;2023-10-19T05:23:29;7.50;99.90
46159;DHT22;31888;44.512;26.104;2023-10-19T05:26:00;7.60;99.90
46159;DHT22;31888;44.512;26.104;2023-10-19T05:28:25;7.70;99.90
46159;DHT22;31888;44.512;26.104;2023-10-19T05:30:51;7.90;99.90
46159;DHT22;31888;44.512;26.104;2023-10-19T05:33:17;8.00;99.90
46159;DHT22;31888;44.512;26.104;2023-10-19T05:35:43;8.20;99.90
46159;DHT22;31888;44.512;26.104;2023-10-19T05:38:07;8.00;99.90
46159;DHT22;31888;44.512;26.104;2023-10-19T05:40:33;8.20;99.90
46159;DHT22;31888;44.512;26.104;2023-10-19T05:42:58;8.40;99.90
46159;DHT22;31888;44.512;26.104;2023-10-19T05:45:24;8.60;99.90
46159;DHT22;31888;44.512;26.104;2023-10-19T05:47:50;8.90;99.90
46159;DHT22;31888;44.512;26.104;2023-10-19T05:50:14;9.40;99.90
46159;DHT22;31888;44.512;26.104;2023-10-19T05:52:39;9.80;99.90
46159;DHT22;31888;44.512;26.104;2023-10-19T05:55:04;10.00;99.90
46159;DHT22;31888;44.512;26.104;2023-10-19T05:57:30;10.80;99.90
46159;DHT22;31888;44.512;26.104;2023-10-19T05:59:54;11.70;99.90
46159;DHT22;31888;44.512;26.104;2023-10-19T06:02:18;12.50;99.90
46159;DHT22;31888;44.512;26.104;2023-10-19T06:04:54;13.20;99.90
46159;DHT22;31888;44.512;26.104;2023-10-19T06:07:20;13.50;99.90
46159;DHT22;31888;44.512;26.104;2023-10-19T06:09:48;13.80;99.70
46159;DHT22;31888;44.512;26.104;2023-10-19T06:12:13;14.00;99.10
46159;DHT22;31888;44.512;26.104;2023-10-19T06:14:39;14.10;98.80
46159;DHT22;31888;44.512;26.104;2023-10-19T06:17:03;14.10;98.00
46159;DHT22;31888;44.512;26.104;2023-10-19T06:19:32;14.40;97.60
46159;DHT22;31888;44.512;26.104;2023-10-19T06:21:57;14.70;97.50
46159;DHT22;31888;44.512;26.104;2023-10-19T06:24:20;15.20;96.40
46159;DHT22;31888;44.512;26.104;2023-10-19T06:26:45;15.90;95.90
46159;DHT22;31888;44.512;26.104;2023-10-19T06:29:09;16.30;94.80
46159;DHT22;31888;44.512;26.104;2023-10-19T06:31:36;17.20;94.20
46159;DHT22;31888;44.512;26.104;2023-10-19T06:34:00;17.50;93.50
46159;DHT22;31888;44.512;26.104;2023-10-19T06:36:24;18.00;93.00
46159;DHT22;31888;44.512;26.104;2023-10-19T06:38:49;17.90;92.90
46159;DHT22;31888;44.512;26.104;2023-10-19T06:41:14;18.30;92.50
46159;DHT22;31888;44.512;26.104;2023-10-19T06:43:41;18.60;92.00
46159;DHT22;31888;44.512;26.104;2023-10-19T06:46:05;18.90;91.60
46159;DHT22;31888;44.512;26.104;2023-10-19T06:48:31;19.20;91.40
46159;DHT22;31888;44.512;26.104;2023-10-19T06:50:56;20.10;90.40
46159;DHT22;31888;44.512;26.104;2023-10-19T06:53:20;20.90;88.90
46159;DHT22;31888;44.512;26.104;2023-10-19T06:55:47;21.40;87.10
46159;DHT22;31888;44.512;26.104;2023-10-19T06:58:11;22.30;85.20
46159;DHT22;31888;44.512;26.104;2023-10-19T07:00:37;22.60;83.70
46159;DHT22;31888;44.512;26.104;2023-10-19T07:03:09;22.90;80.70
46159;DHT22;31888;44.512;26.104;2023-10-19T07:05:35;22.80;81.20
46159;DHT22;31888;44.512;26.104;2023-10-19T07:08:00;23.20;79.80
46159;DHT22;31888;44.512;26.104;2023-10-19T07:10:25;23.90;77.80
46159;DHT22;31888;44.512;26.104;2023-10-19T07:12:52;23.80;76.90
46159;DHT22;31888;44.512;26.104;2023-10-19T07:15:17;24.30;75.30
46159;DHT22;31888;44.512;26.104;2023-10-19T07:17:45;25.00;74.10
46159;DHT22;31888;44.512;26.104;2023-10-19T07:20:11;25.10;73.10
46159;DHT22;31888;44.512;26.104;2023-10-19T07:22:46;24.80;72.30
46159;DHT22;31888;44.512;26.104;2023-10-19T07:25:10;24.90;72.10
46159;DHT22;31888;44.512;26.104;2023-10-19T07:27:36;25.70;71.00
46159;DHT22;31888;44.512;26.104;2023-10-19T07:30:00;26.40;69.60
46159;DHT22;31888;44.512;26.104;2023-10-19T07:32:28;27.30;68.70
46159;DHT22;31888;44.512;26.104;2023-10-19T07:34:52;28.10;66.90
46159;DHT22;31888;44.512;26.104;2023-10-19T07:37:17;28.00;65.90
46159;DHT22;31888;44.512;26.104;2023-10-19T07:59:38;28.20;64.30
46159;DHT22;31888;44.512;26.104;2023-10-19T08:02:02;29.40;61.30
46159;DHT22;31888;44.512;26.104;2023-10-19T08:04:27;28.90;62.10
46159;DHT22;31888;44.512;26.104;2023-10-19T08:06:51;29.60;61.60
46159;DHT22;31888;44.512;26.104;2023-10-19T08:09:15;29.00;60.80
46159;DHT22;31888;44.512;26.104;2023-10-19T08:11:45;28.90;61.00
46159;DHT22;31888;44.512;26.104;2023-10-19T08:14:09;27.90;61.70
46159;DHT22;31888;44.512;26.104;2023-10-19T08:16:35;27.60;62.70
46159;DHT22;31888;44.512;26.104;2023-10-19T08:18:59;28.30;62.30
46159;DHT22;31888;44.512;26.104;2023-10-19T08:21:23;28.10;62.20
46159;DHT22;31888;44.512;26.104;2023-10-19T08:23:47;28.70;61.40
46159;DHT22;31888;44.512;26.104;2023-10-19T08:26:11;29.10;60.70
46159;DHT22;31888;44.512;26.104;2023-10-19T08:28:35;28.70;60.40
46159;DHT22;31888;44.512;26.104;2023-10-19T08:30:59;29.20;60.70
46159;DHT22;31888;44.512;26.104;2023-10-19T08:33:29;29.60;59.60
46159;DHT22;31888;44.512;26.104;2023-10-19T08:35:56;30.30;59.10
46159;DHT22;31888;44.512;26.104;2023-10-19T08:38:23;29.80;58.50
46159;DHT22;31888;44.512;26.104;2023-10-19T08:40:49;29.50;59.80
46159;DHT22;31888;44.512;26.104;2023-10-19T08:43:14;28.50;59.40
46159;DHT22;31888;44.512;26.104;2023-10-19T08:45:42;28.90;59.90
46159;DHT22;31888;44.512;26.104;2023-10-19T08:48:06;29.00;60.00
46159;DHT22;31888;44.512;26.104;2023-10-19T08:50:33;28.40;59.90
46159;DHT22;31888;44.512;26.104;2023-10-19T08:52:59;27.40;60.90
46159;DHT22;31888;44.512;26.104;2023-10-19T08:55:24;26.80;62.90
46159;DHT22;31888;44.512;26.104;2023-10-19T08:58:08;25.40;63.80
46159;DHT22;31888;44.512;26.104;2023-10-19T09:00:43;24.90;66.50
46159;DHT22;31888;44.512;26.104;2023-10-19T09:03:10;24.50;66.60
46159;DHT22;31888;44.512;26.104;2023-10-19T09:05:39;23.90;67.30
46159;DHT22;31888;44.512;26.104;2023-10-19T09:08:04;23.00;69.10
46159;DHT22;31888;44.512;26.104;2023-10-19T09:10:29;22.30;70.00
46159;DHT22;31888;44.512;26.104;2023-10-19T09:12:59;21.90;72.50
46159;DHT22;31888;44.512;26.104;2023-10-19T09:15:24;22.00;72.80
46159;DHT22;31888;44.512;26.104;2023-10-19T09:17:48;22.10;73.40
46159;DHT22;31888;44.512;26.104;2023-10-19T09:20:19;21.70;72.50
46159;DHT22;31888;44.512;26.104;2023-10-19T09:22:51;21.60;73.40
46159;DHT22;31888;44.512;26.104;2023-10-19T09:25:15;21.50;73.30
46159;DHT22;31888;44.512;26.104;2023-10-19T09:27:40;21.70;74.00
46159;DHT22;31888;44.512;26.104;2023-10-19T09:30:05;21.20;74.10
46159;DHT22;31888;44.512;26.104;2023-10-19T09:32:31;21.60;74.10
46159;DHT22;31888;44.512;26.104;2023-10-19T09:34:55;21.10;73.70
46159;DHT22;31888;44.512;26.104;2023-10-19T09:37:20;21.00;74.50
46159;DHT22;31888;44.512;26.104;2023-10-19T09:39:45;20.70;75.00
46159;DHT22;31888;44.512;26.104;2023-10-19T09:42:10;20.50;75.80
46159;DHT22;31888;44.512;26.104;2023-10-19T09:44:41;20.40;76.10
46159;DHT22;31888;44.512;26.104;2023-10-19T09:47:10;20.40;77.00
46159;DHT22;31888;44.512;26.104;2023-10-19T09:49:35;20.50;76.10
46159;DHT22;31888;44.512;26.104;2023-10-19T09:51:59;20.60;75.80
46159;DHT22;31888;44.512;26.104;2023-10-19T09:54:42;20.20;76.60
46159;DHT22;31888;44.512;26.104;2023-10-19T09:57:16;20.40;76.70
46159;DHT22;31888;44.512;26.104;2023-10-19T09:59:45;20.40;76.50
46159;DHT22;31888;44.512;26.104;2023-10-19T10:02:11;20.10;77.00
46159;DHT22;31888;44.512;26.104;2023-10-19T10:04:37;20.10;77.80
46159;DHT22;31888;44.512;26.104;2023-10-19T10:07:02;20.00;77.70
46159;DHT22;31888;44.512;26.104;2023-10-19T10:09:29;20.00;78.30
46159;DHT22;31888;44.512;26.104;2023-10-19T10:11:53;20.10;78.20
46159;DHT22;31888;44.512;26.104;2023-10-19T10:14:23;20.40;77.80
46159;DHT22;31888;44.512;26.104;2023-10-19T10:16:59;20.70;76.30
46159;DHT22;31888;44.512;26.104;2023-10-19T10:19:25;20.60;75.80
46159;DHT22;31888;44.512;26.104;2023-10-19T10:22:04;20.20;76.70
46159;DHT22;31888;44.512;26.104;2023-10-19T10:24:34;20.10;76.40
46159;DHT22;31888;44.512;26.104;2023-10-19T10:26:59;19.90;77.50
46159;DHT22;31888;44.512;26.104;2023-10-19T10:29:27;20.00;77.10
46159;DHT22;31888;44.512;26.104;2023-10-19T10:31:53;19.70;77.90
46159;DHT22;31888;44.512;26.104;2023-10-19T10:34:44;19.30;78.50
46159;DHT22;31888;44.512;26.104;2023-10-19T10:37:09;19.50;78.60
46159;DHT22;31888;44.512;26.104;2023-10-19T10:39:33;19.40;78.40
46159;DHT22;31888;44.512;26.104;2023-10-19T10:41:59;19.50;78.60
46159;DHT22;31888;44.512;26.104;2023-10-19T10:44:38;19.40;78.50
46159;DHT22;31888;44.512;26.104;2023-10-19T10:47:02;19.40;78.80
46159;DHT22;31888;44.512;26.104;2023-10-19T10:49:26;19.30;78.70
46159;DHT22;31888;44.512;26.104;2023-10-19T10:51:54;19.40;78.90
46159;DHT22;31888;44.512;26.104;2023-10-19T10:54:21;19.20;79.00
46159;DHT22;31888;44.512;26.104;2023-10-19T10:56:45;19.30;79.40
46159;DHT22;31888;44.512;26.104;2023-10-19T10:59:12;19.40;79.40
46159;DHT22;31888;44.512;26.104;2023-10-19T11:01:38;19.60;78.70
46159;DHT22;31888;44.512;26.104;2023-10-19T11:04:08;19.70;78.20
46159;DHT22;31888;44.512;26.104;2023-10-19T11:06:33;19.70;77.90
46159;DHT22;31888;44.512;26.104;2023-10-19T11:08:57;19.50;77.70
46159;DHT22;31888;44.512;26.104;2023-10-19T11:11:21;19.50;78.10
46159;DHT22;31888;44.512;26.104;2023-10-19T11:13:45;19.40;78.10
46159;DHT22;31888;44.512;26.104;2023-10-19T11:16:09;19.30;77.80
46159;DHT22;31888;44.512;26.104;2023-10-19T11:18:36;19.20;78.70
46159;DHT22;31888;44.512;26.104;2023-10-19T11:21:05;19.30;78.60
46159;DHT22;31888;44.512;26.104;2023-10-19T11:23:39;19.30;78.20
46159;DHT22;31888;44.512;26.104;2023-10-19T11:26:04;19.40;77.40
46159;DHT22;31888;44.512;26.104;2023-10-19T11:28:28;19.40;77.50
46159;DHT22;31888;44.512;26.104;2023-10-19T11:30:54;19.40;78.00
46159;DHT22;31888;44.512;26.104;2023-10-19T11:33:18;19.50;78.00
46159;DHT22;31888;44.512;26.104;2023-10-19T11:35:48;19.40;77.90
46159;DHT22;31888;44.512;26.104;2023-10-19T11:38:11;19.30;77.70
46159;DHT22;31888;44.512;26.104;2023-10-19T11:40:35;19.30;77.60
46159;DHT22;31888;44.512;26.104;2023-10-19T11:42:59;19.20;77.10
46159;DHT22;31888;44.512;26.104;2023-10-19T11:45:24;19.30;76.90
46159;DHT22;31888;44.512;26.104;2023-10-19T11:47:48;19.30;76.00
46159;DHT22;31888;44.512;26.104;2023-10-19T11:50:13;19.30;76.30
46159;DHT22;31888;44.512;26.104;2023-10-19T11:52:39;19.20;76.30
46159;DHT22;31888;44.512;26.104;2023-10-19T11:55:04;19.30;76.40
46159;DHT22;31888;44.512;26.104;2023-10-19T11:57:28;19.30;75.70
46159;DHT22;31888;44.512;26.104;2023-10-19T11:59:52;19.20;75.50
46159;DHT22;31888;44.512;26.104;2023-10-19T12:02:18;19.20;76.10
46159;DHT22;31888;44.512;26.104;2023-10-19T12:04:43;19.30;75.50
46159;DHT22;31888;44.512;26.104;2023-10-19T12:07:07;19.30;75.60
46159;DHT22;31888;44.512;26.104;2023-10-19T12:09:33;19.30;75.20
46159;DHT22;31888;44.512;26.104;2023-10-19T12:11:58;19.30;75.90
46159;DHT22;31888;44.512;26.104;2023-10-19T12:14:22;19.30;75.80
46159;DHT22;31888;44.512;26.104;2023-10-19T12:16:46;19.40;75.60
46159;DHT22;31888;44.512;26.104;2023-10-19T12:19:11;19.40;74.80
46159;DHT22;31888;44.512;26.104;2023-10-19T12:21:37;19.40;75.20
46159;DHT22;31888;44.512;26.104;2023-10-19T12:24:04;19.40;75.20
46159;DHT22;31888;44.512;26.104;2023-10-19T12:26:29;19.40;75.60
46159;DHT22;31888;44.512;26.104;2023-10-19T12:28:53;19.30;75.10
46159;DHT22;31888;44.512;26.104;2023-10-19T12:31:20;19.30;74.60
46159;DHT22;31888;44.512;26.104;2023-10-19T12:33:45;19.20;75.50
46159;DHT22;31888;44.512;26.104;2023-10-19T12:36:10;19.20;75.60
46159;DHT22;31888;44.512;26.104;2023-10-19T12:38:56;19.10;75.80
46159;DHT22;31888;44.512;26.104;2023-10-19T12:41:21;19.20;75.40
46159;DHT22;31888;44.512;26.104;2023-10-19T12:43:47;19.00;75.40
46159;DHT22;31888;44.512;26.104;2023-10-19T12:46:15;19.10;75.70
46159;DHT22;31888;44.512;26.104;2023-10-19T12:48:40;19.30;75.90
46159;DHT22;31888;44.512;26.104;2023-10-19T12:51:04;19.30;75.90
46159;DHT22;31888;44.512;26.104;2023-10-19T12:53:29;19.40;75.10
46159;DHT22;31888;44.512;26.104;2023-10-19T12:55:53;19.50;74.90
46159;DHT22;31888;44.512;26.104;2023-10-19T12:58:17;19.60;74.90
46159;DHT22;31888;44.512;26.104;2023-10-19T13:00:44;19.70;74.60
46159;DHT22;31888;44.512;26.104;2023-10-19T13:03:11;19.70;74.30
46159;DHT22;31888;44.512;26.104;2023-10-19T13:05:39;19.80;73.50
46159;DHT22;31888;44.512;26.104;2023-10-19T13:08:05;19.90;73.50
46159;DHT22;31888;44.512;26.104;2023-10-19T13:10:30;20.00;73.60
46159;DHT22;31888;44.512;26.104;2023-10-19T13:12:55;20.00;73.60
46159;DHT22;31888;44.512;26.104;2023-10-19T13:15:19;20.00;74.10
46159;DHT22;31888;44.512;26.104;2023-10-19T13:17:47;20.00;73.40
46159;DHT22;31888;44.512;26.104;2023-10-19T13:20:14;19.90;74.20
46159;DHT22;31888;44.512;26.104;2023-10-19T13:22:41;20.00;75.40
46159;DHT22;31888;44.512;26.104;2023-10-19T13:25:06;20.00;75.40
46159;DHT22;31888;44.512;26.104;2023-10-19T13:27:31;20.10;75.20
46159;DHT22;31888;44.512;26.104;2023-10-19T13:29:56;20.10;75.00
46159;DHT22;31888;44.512;26.104;2023-10-19T13:32:20;20.10;73.80
46159;DHT22;31888;44.512;26.104;2023-10-19T13:34:45;20.10;73.90
46159;DHT22;31888;44.512;26.104;2023-10-19T13:37:09;20.10;75.60
46159;DHT22;31888;44.512;26.104;2023-10-19T13:39:33;20.10;75.70
46159;DHT22;31888;44.512;26.104;2023-10-19T13:41:57;20.10;74.70
46159;DHT22;31888;44.512;26.104;2023-10-19T13:44:21;20.10;73.50
46159;DHT22;31888;44.512;26.104;2023-10-19T13:46:46;20.10;73.20
46159;DHT22;31888;44.512;26.104;2023-10-19T13:49:10;20.10;72.90
46159;DHT22;31888;44.512;26.104;2023-10-19T13:51:35;20.10;73.00
46159;DHT22;31888;44.512;26.104;2023-10-19T13:53:59;20.10;73.20
46159;DHT22;31888;44.512;26.104;2023-10-19T13:56:23;20.10;73.00
46159;DHT22;31888;44.512;26.104;2023-10-19T13:58:47;20.10;72.90
46159;DHT22;31888;44.512;26.104;2023-10-19T14:01:12;20.20;73.30
46159;DHT22;31888;44.512;26.104;2023-10-19T14:03:39;20.20;73.10
46159;DHT22;31888;44.512;26.104;2023-10-19T14:06:03;20.10;72.80
46159;DHT22;31888;44.512;26.104;2023-10-19T14:08:29;20.10;72.80
46159;DHT22;31888;44.512;26.104;2023-10-19T14:11:01;20.10;72.70
46159;DHT22;31888;44.512;26.104;2023-10-19T14:13:25;20.00;72.90
46159;DHT22;31888;44.512;26.104;2023-10-19T14:15:49;20.00;73.10
46159;DHT22;31888;44.512;26.104;2023-10-19T14:18:13;19.90;74.20
46159;DHT22;31888;44.512;26.104;2023-10-19T14:20:37;19.90;73.30
46159;DHT22;31888;44.512;26.104;2023-10-19T14:23:03;19.90;73.10
46159;DHT22;31888;44.512;26.104;2023-10-19T14:25:29;19.90;73.00
46159;DHT22;31888;44.512;26.104;2023-10-19T14:27:55;19.90;73.30
46159;DHT22;31888;44.512;26.104;2023-10-19T14:30:23;19.90;73.20
46159;DHT22;31888;44.512;26.104;2023-10-19T14:32:47;19.80;73.20
46159;DHT22;31888;44.512;26.104;2023-10-19T14:35:13;19.80;73.70
46159;DHT22;31888;44.512;26.104;2023-10-19T14:37:40;19.70;73.30
46159;DHT22;31888;44.512;26.104;2023-10-19T14:40:09;19.70;73.60
46159;DHT22;31888;44.512;26.104;2023-10-19T14:42:35;19.60;73.70
46159;DHT22;31888;44.512;26.104;2023-10-19T14:44:59;19.60;73.90
46159;DHT22;31888;44.512;26.104;2023-10-19T14:47:23;19.50;74.10
46159;DHT22;31888;44.512;26.104;2023-10-19T14:49:49;19.50;74.40
46159;DHT22;31888;44.512;26.104;2023-10-19T14:52:13;19.40;74.80
46159;DHT22;31888;44.512;26.104;2023-10-19T14:54:37;19.40;74.60
46159;DHT22;31888;44.512;26.104;2023-10-19T14:57:01;19.30;74.20
46159;DHT22;31888;44.512;26.104;2023-10-19T14:59:26;19.30;74.40
46159;DHT22;31888;44.512;26.104;2023-10-19T15:01:50;19.20;74.20
46159;DHT22;31888;44.512;26.104;2023-10-19T15:04:14;19.20;74.50
46159;DHT22;31888;44.512;26.104;2023-10-19T15:06:38;19.10;75.10
46159;DHT22;31888;44.512;26.104;2023-10-19T15:09:03;19.00;74.90
46159;DHT22;31888;44.512;26.104;2023-10-19T15:11:27;19.00;75.40
46159;DHT22;31888;44.512;26.104;2023-10-19T15:13:50;18.90;75.70
46159;DHT22;31888;44.512;26.104;2023-10-19T15:16:16;18.80;76.30
46159;DHT22;31888;44.512;26.104;2023-10-19T15:18:40;18.70;77.60
46159;DHT22;31888;44.512;26.104;2023-10-19T15:21:08;18.50;77.90
46159;DHT22;31888;44.512;26.104;2023-10-19T15:23:33;18.40;78.20
46159;DHT22;31888;44.512;26.104;2023-10-19T15:25:57;18.20;78.90
46159;DHT22;31888;44.512;26.104;2023-10-19T15:28:21;18.10;79.80
46159;DHT22;31888;44.512;26.104;2023-10-19T15:30:45;17.90;79.90
46159;DHT22;31888;44.512;26.104;2023-10-19T15:33:11;17.80;81.50
46159;DHT22;31888;44.512;26.104;2023-10-19T15:35:35;17.70;81.90